Flight Track Log - Related Links

Times and Time Zones

All times are in EDT time to prevent confusion due to time zone crossing. See the THY1385 flight status page for this flight to view local times or setup timezone preferences in your user account.

Time Position Orientation Groundspeed Altitude Reporting Facility
EDT Latitude Longitude Course Direction KTS MPH feet Rate Location/Type
Fri 07:32:17 AM 41.0970 28.7900 326° Northwest 248 285 4,900  Level FlightAware ADS-B
Fri 07:32:37 AM 41.1140 28.7720 321° Northwest 273 314 5,400 2,533 Climbing FlightAware ADS-B
Fri 07:33:02 AM 41.1350 28.7360 308° West 285 328 6,800 3,400 Climbing FlightAware ADS-B
Fri 07:33:37 AM 41.1670 28.6860 310° West 289 333 8,800 3,040 Climbing FlightAware ADS-B
Fri 07:34:17 AM 41.2010 28.6320 310° West 301 346 10,600 2,047 Climbing FlightAware ADS-B
Fri 07:35:02 AM 41.2440 28.5630 310° West 351 404 11,700 1,976 Climbing FlightAware ADS-B
Fri 07:35:42 AM 41.2890 28.4890 309° West 374 430 13,400 2,733 Climbing FlightAware ADS-B
Fri 07:36:32 AM 41.3440 28.4010 310° West 386 444 15,800 2,933 Climbing FlightAware ADS-B
Fri 07:37:12 AM 41.3900 28.3280 310° West 392 451 17,800 2,925 Climbing FlightAware ADS-B
Fri 07:37:52 AM 41.4370 28.2510 309° West 400 460 19,700 2,541 Climbing FlightAware ADS-B
Fri 07:38:37 AM 41.4910 28.1630 309° West 416 479 21,400 2,188 Climbing FlightAware ADS-B
Fri 07:39:17 AM 41.5360 28.0900 309° West 425 489 22,800 2,188 Climbing FlightAware ADS-B
Fri 07:40:02 AM 41.5960 27.9920 309° West 434 499 24,500 2,188 Climbing FlightAware ADS-B
Fri 07:40:42 AM 41.6460 27.9110 310° West 439 505 25,900 2,025 Climbing FlightAware ADS-B
Fri 07:41:22 AM 41.7000 27.8230 309° West 444 511 27,200 1,906 Climbing FlightAware ADS-B
Fri 07:42:07 AM 41.7590 27.7250 309° West 451 519 28,600 1,667 Climbing FlightAware ADS-B
Fri 07:42:52 AM 41.8160 27.6310 309° West 457 526 29,700 1,500 Climbing FlightAware ADS-B
Fri 07:43:27 AM 41.8650 27.5500 309° West 461 531 30,600 1,800 Climbing FlightAware ADS-B
Fri 07:44:12 AM 41.9250 27.4500 309° West 454 522 32,100 1,733 Climbing FlightAware ADS-B
Fri 07:44:57 AM 41.9850 27.3510 309° West 455 524 33,200 1,271 Climbing FlightAware ADS-B
Fri 07:45:37 AM 42.0360 27.2650 309° West 454 522 33,900 1,553 Climbing FlightAware ADS-B
Fri 07:46:22 AM 42.0850 27.1630 303° West 443 510 35,400 1,482 Climbing FlightAware ADS-B
Fri 07:47:02 AM 42.1220 27.0590 296° West 447 514 36,000 918 Climbing FlightAware ADS-B
Fri 07:47:47 AM 42.1620 26.9490 296° West 452 520 36,700 988 Climbing FlightAware ADS-B
Fri 07:48:27 AM 42.1980 26.8480 296° West 452 520 37,400 825 Climbing FlightAware ADS-B
Fri 07:49:07 AM 42.2360 26.7430 296° West 453 521 37,800 424 Climbing FlightAware ADS-B
Fri 07:49:52 AM 42.2760 26.6300 296° West 455 524 38,000 150 Climbing FlightAware ADS-B
Fri 07:50:27 AM 42.3040 26.5490 295° West 455 524 38,000  Level FlightAware ADS-B
Fri 07:51:17 AM 42.3490 26.4240 296° West 454 522 38,000  Level FlightAware ADS-B
Fri 07:51:47 AM 42.3760 26.3470 295° West 454 522 38,000  Level FlightAware ADS-B
Fri 07:52:42 AM 42.4290 26.1960 295° West 453 521 38,000  Level FlightAware ADS-B
Fri 07:53:22 AM 42.4620 26.1000 295° West 452 520 38,000  Level FlightAware ADS-B
Fri 07:54:02 AM 42.5000 25.9910 295° West 450 518 38,000  Level FlightAware ADS-B
Fri 07:54:37 AM 42.5280 25.9100 295° West 448 516 38,000  Level FlightAware ADS-B
Fri 07:55:27 AM 42.5740 25.7760 295° West 446 513 38,000  Level FlightAware ADS-B
Fri 07:56:07 AM 42.6080 25.6790 295° West 445 512 38,000  Level FlightAware ADS-B
Fri 07:56:52 AM 42.6480 25.5610 295° West 443 510 38,000  Level FlightAware ADS-B
Fri 07:57:32 AM 42.6820 25.4620 295° West 443 510 38,000  Level FlightAware ADS-B
Fri 07:58:17 AM 42.7210 25.3480 295° West 447 514 38,000  Level FlightAware ADS-B
Fri 07:58:57 AM 42.7560 25.2450 295° West 447 514 38,000  Level FlightAware ADS-B
Fri 07:59:37 AM 42.7880 25.1490 294° West 447 514 38,000  Level FlightAware ADS-B
Fri 08:00:22 AM 42.8280 25.0310 295° West 446 513 38,000  Level FlightAware ADS-B
Fri 08:01:02 AM 42.8700 24.9310 300° West 443 510 38,000  Level FlightAware ADS-B
Fri 08:01:42 AM 42.9090 24.8390 300° West 441 507 38,000  Level FlightAware ADS-B
Fri 08:02:22 AM 42.9500 24.7420 300° West 441 507 38,000  Level FlightAware ADS-B
Fri 08:03:02 AM 42.9920 24.6430 300° West 444 511 38,000  Level FlightAware ADS-B
Fri 08:03:52 AM 43.0450 24.5200 301° West 440 506 38,000  Level FlightAware ADS-B
Fri 08:04:32 AM 43.0850 24.4250 300° West 434 499 38,000  Level FlightAware ADS-B
Fri 08:05:12 AM 43.1250 24.3300 300° West 428 493 38,000  Level FlightAware ADS-B
Fri 08:05:57 AM 43.1690 24.2260 300° West 426 490 38,000  Level FlightAware ADS-B
Fri 08:06:37 AM 43.2080 24.1310 299° West 425 489 38,000  Level FlightAware ADS-B
Fri 08:07:22 AM 43.2510 24.0260 299° West 422 486 38,000  Level FlightAware ADS-B
Fri 08:08:02 AM 43.2900 23.9330 300° West 421 484 38,000  Level FlightAware ADS-B
Fri 08:08:42 AM 43.3290 23.8400 300° West 424 488 38,000  Level FlightAware ADS-B
Fri 08:09:22 AM 43.3680 23.7460 300° West 428 493 38,000  Level FlightAware ADS-B
Fri 08:10:07 AM 43.4120 23.6380 299° West 432 497 38,000  Level FlightAware ADS-B
Fri 08:10:47 AM 43.4510 23.5430 300° West 432 497 38,000  Level FlightAware ADS-B
Fri 08:11:32 AM 43.4930 23.4390 299° West 436 502 38,000  Level FlightAware ADS-B
Fri 08:12:12 AM 43.5330 23.3430 300° West 438 504 38,000  Level FlightAware ADS-B
Fri 08:12:57 AM 43.5790 23.2290 299° West 438 504 38,000  Level FlightAware ADS-B
Fri 08:13:37 AM 43.6180 23.1310 299° West 438 504 38,000  Level FlightAware ADS-B
Fri 08:14:17 AM 43.6570 23.0340 299° West 438 504 38,000  Level FlightAware ADS-B
Fri 08:15:02 AM 43.7000 22.9270 299° West 437 503 38,000  Level FlightAware ADS-B
Fri 08:15:42 AM 43.7400 22.8270 299° West 435 501 38,000  Level FlightAware ADS-B
Fri 08:16:22 AM 43.7770 22.7360 299° West 435 501 38,000  Level FlightAware ADS-B
Fri 08:17:07 AM 43.8230 22.6220 299° West 433 498 38,000  Level FlightAware ADS-B
Fri 08:17:47 AM 43.8620 22.5270 300° West 431 496 38,000  Level FlightAware ADS-B
Fri 08:18:32 AM 43.9080 22.4160 300° West 431 496 38,000  Level FlightAware ADS-B
Fri 08:19:12 AM 43.9490 22.3210 301° West 433 498 38,000  Level FlightAware ADS-B
Fri 08:19:52 AM 43.9890 22.2240 300° West 435 501 38,000  Level FlightAware ADS-B
Fri 08:20:37 AM 44.0330 22.1200 301° West 435 501 38,000  Level FlightAware ADS-B
Fri 08:21:17 AM 44.0740 22.0220 300° West 436 502 38,000  Level FlightAware ADS-B
Fri 08:22:02 AM 44.1210 21.9090 300° West 438 504 38,000  Level FlightAware ADS-B
Fri 08:22:42 AM 44.1620 21.8120 301° West 438 504 38,000  Level FlightAware ADS-B
Fri 08:23:22 AM 44.2030 21.7160 301° West 439 505 38,000  Level FlightAware ADS-B
Fri 08:24:07 AM 44.2480 21.6100 301° West 439 505 38,000  Level FlightAware ADS-B
Fri 08:24:47 AM 44.2900 21.5150 302° West 439 505 38,000  Level FlightAware ADS-B
Fri 08:25:27 AM 44.3320 21.4170 301° West 440 506 38,000  Level FlightAware ADS-B
Fri 08:26:12 AM 44.3810 21.3050 302° West 441 507 38,000  Level FlightAware ADS-B
Fri 08:26:57 AM 44.4280 21.1970 301° West 441 507 38,000  Level FlightAware ADS-B
Fri 08:27:37 AM 44.4720 21.0970 302° West 441 507 38,000  Level FlightAware ADS-B
Fri 08:28:17 AM 44.5130 21.0060 302° West 440 506 38,000  Level FlightAware ADS-B
Fri 08:29:02 AM 44.5620 20.8960 302° West 440 506 38,000  Level FlightAware ADS-B
Fri 08:29:47 AM 44.6220 20.7980 311° West 441 507 38,000  Level FlightAware ADS-B
Fri 08:30:27 AM 44.6780 20.7200 315° West 443 510 38,000  Level FlightAware ADS-B
Fri 08:31:07 AM 44.7380 20.6380 316° Northwest 444 511 38,000  Level FlightAware ADS-B
Fri 08:31:52 AM 44.8060 20.5440 316° Northwest 444 511 38,000  Level FlightAware ADS-B
Fri 08:32:32 AM 44.8640 20.4620 315° West 446 513 38,000  Level FlightAware ADS-B
Fri 08:33:17 AM 44.9260 20.3760 316° Northwest 447 514 38,000  Level FlightAware ADS-B
Fri 08:33:57 AM 44.9860 20.2920 315° West 448 516 38,000  Level FlightAware ADS-B
Fri 08:34:37 AM 45.0450 20.2080 315° West 448 516 38,000  Level FlightAware ADS-B
Fri 08:35:22 AM 45.1070 20.1210 315° West 441 507 38,000  Level FlightAware ADS-B
Fri 08:36:02 AM 45.1660 20.0380 315° West 439 505 38,000  Level FlightAware ADS-B
Fri 08:36:47 AM 45.2310 19.9450 315° West 439 505 38,000  Level FlightAware ADS-B
Fri 08:37:27 AM 45.2900 19.8610 315° West 438 504 38,000  Level FlightAware ADS-B
Fri 08:38:07 AM 45.3470 19.7800 315° West 438 504 38,000  Level FlightAware ADS-B
Fri 08:38:52 AM 45.4090 19.6900 314° West 438 504 38,000  Level FlightAware ADS-B
Fri 08:39:32 AM 45.4660 19.6080 315° West 439 505 38,000  Level FlightAware ADS-B
Fri 08:40:12 AM 45.5280 19.5190 315° West 439 505 38,000  Level FlightAware ADS-B
Fri 08:40:57 AM 45.5900 19.4290 315° West 440 506 38,000  Level FlightAware ADS-B
Fri 08:41:37 AM 45.6500 19.3420 315° West 441 507 38,000  Level FlightAware ADS-B
Fri 08:42:22 AM 45.7160 19.2470 315° West 442 509 38,000  Level FlightAware ADS-B
Fri 08:43:02 AM 45.7730 19.1620 314° West 442 509 38,000  Level FlightAware ADS-B
Fri 08:43:42 AM 45.8310 19.0770 314° West 444 511 38,000  Level FlightAware ADS-B
Fri 08:44:27 AM 45.8910 18.9800 312° West 442 509 38,000  Level FlightAware ADS-B
Fri 08:45:07 AM 45.9300 18.8750 298° West 437 503 38,000  Level FlightAware ADS-B
Fri 08:45:52 AM 45.9660 18.7600 294° West 437 503 38,000  Level FlightAware ADS-B
Fri 08:46:32 AM 46.0010 18.6500 295° West 436 502 38,000  Level FlightAware ADS-B
Fri 08:47:12 AM 46.0350 18.5460 295° West 439 505 38,000  Level FlightAware ADS-B
Fri 08:47:57 AM 46.0720 18.4260 294° West 440 506 38,000  Level FlightAware ADS-B
Fri 08:48:37 AM 46.1060 18.3190 295° West 440 506 38,000  Level FlightAware ADS-B
Fri 08:49:17 AM 46.1380 18.2150 294° West 439 505 38,000  Level FlightAware ADS-B
Fri 08:50:02 AM 46.1760 18.0960 295° West 438 504 38,000  Level FlightAware ADS-B
Fri 08:50:42 AM 46.2080 17.9920 294° West 436 502 38,000  Level FlightAware ADS-B
Fri 08:51:22 AM 46.2410 17.8850 294° West 435 501 38,000  Level FlightAware ADS-B
Fri 08:52:02 AM 46.2750 17.7730 294° West 434 499 38,000  Level FlightAware ADS-B
Fri 08:52:47 AM 46.3120 17.6530 294° West 434 499 38,000  Level FlightAware ADS-B
Fri 08:53:32 AM 46.3480 17.5340 294° West 431 496 38,000  Level FlightAware ADS-B
Fri 08:54:27 AM 46.3920 17.3900 294° West 431 496 38,000  Level FlightAware ADS-B
Fri 08:55:07 AM 46.4220 17.2900 294° West 432 497 38,000  Level FlightAware ADS-B
Fri 08:55:52 AM 46.4570 17.1730 294° West 433 498 38,000  Level FlightAware ADS-B
Fri 08:56:32 AM 46.4900 17.0610 293° West 434 499 38,000  Level FlightAware ADS-B
Fri 08:57:17 AM 46.5270 16.9390 294° West 434 499 38,000  Level FlightAware ADS-B
Fri 08:57:57 AM 46.5580 16.8330 293° West 435 501 38,000  Level FlightAware ADS-B
Fri 08:58:37 AM 46.5900 16.7220 293° West 436 502 38,000  Level FlightAware ADS-B
Fri 08:59:22 AM 46.6310 16.5860 294° West 440 506 38,000  Level FlightAware ADS-B
Fri 09:00:02 AM 46.6620 16.4780 293° West 441 507 38,000  Level FlightAware ADS-B
Fri 09:00:47 AM 46.6970 16.3570 293° West 442 509 38,000  Level FlightAware ADS-B
Fri 09:01:27 AM 46.7290 16.2450 293° West 441 507 38,000  Level FlightAware ADS-B
Fri 09:02:07 AM 46.7610 16.1380 294° West 438 504 38,000  Level FlightAware ADS-B
Fri 09:02:52 AM 46.7960 16.0130 292° West 436 502 38,000 -212 Level FlightAware ADS-B
Fri 09:03:32 AM 46.8230 15.9040 290° West 433 498 37,700 -750 Descending FlightAware ADS-B
Fri 09:04:12 AM 46.8460 15.7900 286° West 438 504 37,000 -988 Descending FlightAware ADS-B
Fri 09:04:57 AM 46.8710 15.6650 286° West 440 506 36,300 -918 Descending FlightAware ADS-B
Fri 09:05:37 AM 46.8930 15.5520 286° West 444 511 35,700 -960 Descending FlightAware ADS-B
Fri 09:06:12 AM 46.9130 15.4520 286° West 442 509 35,100 -900 Descending FlightAware ADS-B
Fri 09:06:57 AM 46.9340 15.3490 287° West 423 487 34,500 -776 Descending FlightAware ADS-B
Fri 09:07:37 AM 46.9590 15.2210 286° West 428 493 34,000 -333 Descending FlightAware ADS-B
Fri 09:08:27 AM 46.9860 15.0850 286° West 430 495 34,000  Level FlightAware ADS-B
Fri 09:09:02 AM 47.0040 14.9910 286° West 432 497 34,000  Level FlightAware ADS-B
Fri 09:09:42 AM 47.0270 14.8730 286° West 433 498 34,000  Level FlightAware ADS-B
Fri 09:10:32 AM 47.0550 14.7260 286° West 434 499 34,000  Level FlightAware ADS-B
Fri 09:11:27 AM 47.0840 14.5750 286° West 436 502 34,000  Level FlightAware ADS-B
Fri 09:12:12 AM 47.1070 14.4520 285° West 437 503 34,000  Level FlightAware ADS-B
Fri 09:12:52 AM 47.1290 14.3340 285° West 438 504 34,000  Level FlightAware ADS-B
Fri 09:13:32 AM 47.1510 14.2180 286° West 440 506 34,000  Level FlightAware ADS-B
Fri 09:14:17 AM 47.1750 14.0880 285° West 440 506 34,000  Level FlightAware ADS-B
Fri 09:14:57 AM 47.1970 13.9660 285° West 439 505 34,000  Level FlightAware ADS-B
Fri 09:15:37 AM 47.2190 13.8490 286° West 437 503 34,000  Level FlightAware ADS-B
Fri 09:16:17 AM 47.2380 13.7450 285° West 437 503 34,000  Level FlightAware ADS-B
Fri 09:16:52 AM 47.2510 13.6690 284° West 437 503 34,000  Level FlightAware ADS-B
Fri 09:17:37 AM 47.2770 13.5260 285° West 436 502 34,000 -400 Level FlightAware ADS-B
Fri 09:18:22 AM 47.2990 13.4060 285° West 435 501 33,400 -918 Descending FlightAware ADS-B
Fri 09:19:02 AM 47.3190 13.2890 284° West 445 512 32,700 -1,020 Descending FlightAware ADS-B
Fri 09:20:02 AM 47.3510 13.1110 285° West 448 516 31,700 -927 Descending FlightAware ADS-B
Fri 09:20:52 AM 47.3750 12.9700 284° West 448 516 31,000 -927 Descending FlightAware ADS-B
Fri 09:21:52 AM 47.4050 12.8010 285° West 437 503 30,000 -1,062 Descending FlightAware ADS-B
Fri 09:23:02 AM 47.4400 12.5950 284° West 429 494 28,700 -1,355 Descending FlightAware ADS-B
Fri 09:24:27 AM 47.4830 12.3370 284° West 410 472 26,500 -1,045 Descending FlightAware ADS-B
Fri 09:25:37 AM 47.5140 12.1560 284° West 406 467 26,000 -214 Descending FlightAware ADS-B
Fri 09:26:47 AM 47.5450 11.9620 283° West 404 465 26,000 -471 Level FlightAware ADS-B
Fri 09:27:57 AM 47.5710 11.7740 282° West 396 456 24,900 -857 Descending FlightAware ADS-B
Fri 09:29:07 AM 47.5960 11.5890 281° West 387 445 24,000 -360 Descending FlightAware ADS-B
Fri 09:30:27 AM 47.6250 11.3800 282° West 381 438 24,000  Level FlightAware ADS-B
Fri 09:31:42 AM 47.6470 11.1910 280° West 357 411 24,000 -455 Level FlightAware ADS-B
Fri 09:32:52 AM 47.6670 11.0300 281° West 342 394 22,900 -1,364 Descending FlightAware ADS-B
Fri 09:33:32 AM 47.6790 10.9310 280° West 337 388 21,500 -1,950 Descending FlightAware ADS-B
Fri 09:34:12 AM 47.6890 10.8430 280° West 329 379 20,300 -2,188 Descending FlightAware ADS-B
Fri 09:34:57 AM 47.7000 10.7400 279° West 331 381 18,400 -2,612 Descending FlightAware ADS-B
Fri 09:35:37 AM 47.7110 10.6510 280° West 340 391 16,600 -2,259 Descending FlightAware ADS-B
Fri 09:36:22 AM 47.7230 10.5480 280° West 323 372 15,200 -1,740 Descending FlightAware ADS-B
Fri 09:37:17 AM 47.7350 10.4430 280° West 312 359 13,700 -1,855 Descending FlightAware ADS-B
Fri 09:38:12 AM 47.7470 10.3260 279° West 303 349 11,800 -1,920 Descending FlightAware ADS-B
Fri 09:39:22 AM 47.7460 10.1910 269° West 293 337 9,700 -1,740 Descending FlightAware ADS-B
Fri 09:39:52 AM 47.7440 10.1330 267° West 283 326 8,900 -1,309 Descending FlightAware ADS-B
Fri 09:40:17 AM 47.7420 10.0890 266° West 271 312 8,500 -933 Descending FlightAware ADS-B
Fri 09:40:37 AM 47.7410 10.0490 268° West 263 303 8,200 -982 Descending FlightAware ADS-B
Fri 09:41:12 AM 47.7440 9.9860 274° West 254 292 7,600 -1,000 Descending FlightAware ADS-B
Fri 09:41:37 AM 47.7470 9.9450 276° West 251 289 7,200 -480 Descending FlightAware ADS-B
Fri 09:42:02 AM 47.7490 9.9040 274° West 251 289 7,200 -1,200 Level FlightAware ADS-B
Fri 09:42:37 AM 47.7540 9.8390 277° West 226 260 6,000 -1,200 Descending FlightAware ADS-B
Fri 09:43:02 AM 47.7560 9.8020 275° West 226 260 6,000 -1,286 Level FlightAware ADS-B
Fri 09:43:47 AM 47.7560 9.7390 270° West 196 226 4,500 -1,600 Descending FlightAware ADS-B
Fri 09:44:17 AM 47.7450 9.7020 246° West 176 203 4,000 -982 Descending FlightAware ADS-B
Fri 09:44:42 AM 47.7370 9.6800 242° Southwest 167 192 3,600 -840 Descending FlightAware ADS-B
Fri 09:45:07 AM 47.7260 9.6540 238° Southwest 160 184 3,300 -900 Descending FlightAware ADS-B
Fri 09:45:42 AM 47.7140 9.6210 242° Southwest 152 175 2,700 -873 Descending FlightAware ADS-B
Fri 09:46:02 AM 47.7080 9.6070 238° Southwest 146 168 2,500 -600 Descending FlightAware ADS-B
Fri 09:46:32 AM 47.6980 9.5810 240° Southwest 146 168 2,200 -667 Descending FlightAware ADS-B
Fri 09:46:47 AM 47.6930 9.5680 240° Southwest 146 168 2,000 -800 Descending FlightAware ADS-B
Fri 09:47:17 AM 47.6830 9.5410 241° Southwest 141 162 1,600 -436 Descending FlightAware ADS-B
Fri 09:47:42 AM 47.6750 9.5210 239° Southwest 141 162 1,600  Level FlightAware ADS-B
Fri 09:50:00 AM 47.6713 9.5115 240° Southwest  Level Estimated
Fri 09:51:00 AM 47.6713 9.5115 222° Southwest  Level Estimated
Fri 09:52:00 AM 47.6713 9.5115 222° Southwest  Level Estimated
Fri 09:53:00 AM 47.6713 9.5115 222° Southwest  Level Estimated
Fri 09:54:00 AM 47.6713 9.5115 222° Southwest  Level Estimated
Fri 09:55:00 AM 47.6713 9.5115 222° Southwest  Level Estimated
Fri 09:56:00 AM 47.6713 9.5115 222° Southwest  Level Estimated
Fri 09:57:00 AM 47.6713 9.5115 222° Southwest  Level Estimated
Fri 09:58:00 AM 47.6713 9.5115 222° Southwest  Level Estimated

Login

Don't have an account? Register now (free) for customized features, flight alerts, and more!